createdAt,value
2018-02-27T00:00:00.485Z,100.73
2018-02-27T00:02:06.508Z,95.30
2018-02-27T00:04:13.012Z,93.33
2018-02-27T00:06:19.698Z,81.97
2018-02-27T00:08:25.417Z,74.83
2018-02-27T00:10:30.840Z,74.00
2018-02-27T00:12:38.286Z,68.10
2018-02-27T00:14:44.330Z,63.83
2018-02-27T00:16:51.338Z,61.07
2018-02-27T00:18:58.833Z,52.60
2018-02-27T00:21:04.160Z,52.80
2018-02-27T00:23:11.210Z,54.67
2018-02-27T00:25:21.975Z,47.63
2018-02-27T00:27:27.812Z,44.03
2018-02-27T00:29:33.987Z,43.77
2018-02-27T00:31:39.688Z,39.20
2018-02-27T00:33:45.705Z,36.80
2018-02-27T00:35:52.287Z,32.83
2018-02-27T00:37:59.484Z,33.93
2018-02-27T00:40:05.688Z,30.53
2018-02-27T00:42:10.921Z,30.47
2018-02-27T00:44:16.795Z,32.30
2018-02-27T00:46:23.099Z,28.23
2018-02-27T00:48:29.075Z,25.90
2018-02-27T00:50:34.319Z,25.20
2018-02-27T00:52:39.929Z,22.70
2018-02-27T00:54:45.368Z,24.17
2018-02-27T00:56:51.353Z,21.00
2018-02-27T00:58:57.360Z,19.30
2018-02-27T01:01:04.926Z,20.60
2018-02-27T01:03:10.264Z,17.50
2018-02-27T01:05:16.186Z,17.80
2018-02-27T01:07:22.275Z,17.80
2018-02-27T01:09:28.030Z,16.80
2018-02-27T01:11:33.990Z,15.37
2018-02-27T01:13:40.740Z,14.10
2018-02-27T01:15:46.840Z,13.93
2018-02-27T01:17:52.632Z,14.70
2018-02-27T01:20:00.245Z,14.83
2018-02-27T01:22:06.607Z,15.57
2018-02-27T01:24:12.720Z,12.50
2018-02-27T01:26:19.236Z,12.70
2018-02-27T01:28:25.386Z,10.90
2018-02-27T01:30:31.476Z,10.80
2018-02-27T01:32:37.214Z,10.67
2018-02-27T01:34:43.251Z,9.67
2018-02-27T01:36:49.535Z,10.93
2018-02-27T01:38:55.436Z,11.27
2018-02-27T01:41:02.532Z,9.87
2018-02-27T01:43:08.564Z,8.70
2018-02-27T01:45:14.826Z,11.57
2018-02-27T01:47:20.632Z,10.00
2018-02-27T01:49:26.634Z,9.07
2018-02-27T01:51:32.643Z,9.47
2018-02-27T01:53:38.848Z,8.47
2018-02-27T01:55:44.640Z,9.13
2018-02-27T01:57:50.753Z,8.30
2018-02-27T01:59:57.267Z,8.10
2018-02-27T02:02:03.868Z,12.30
2018-02-27T02:04:09.516Z,7.87
2018-02-27T02:06:15.475Z,7.90
2018-02-27T02:08:21.119Z,8.30
2018-02-27T02:10:27.171Z,8.67
2018-02-27T02:12:32.928Z,8.53
2018-02-27T02:14:38.864Z,8.03
2018-02-27T02:16:44.968Z,7.13
2018-02-27T02:18:51.218Z,7.23
2018-02-27T02:20:57.167Z,6.83
2018-02-27T02:23:02.833Z,7.87
2018-02-27T02:25:09.228Z,8.57
2018-02-27T02:27:15.255Z,7.23
2018-02-27T02:29:21.107Z,8.23
2018-02-27T02:31:26.842Z,7.20
2018-02-27T02:33:33.664Z,7.50
2018-02-27T02:35:38.951Z,7.33
2018-02-27T02:37:44.782Z,9.23
2018-02-27T02:39:50.727Z,6.93
2018-02-27T02:42:01.423Z,8.70
2018-02-27T02:44:08.026Z,8.13
2018-02-27T02:46:13.841Z,7.23
2018-02-27T02:48:20.296Z,8.23
2018-02-27T02:50:26.096Z,7.20
2018-02-27T02:52:32.123Z,6.97
2018-02-27T02:54:37.998Z,7.00
2018-02-27T02:56:43.533Z,7.07
2018-02-27T02:58:49.456Z,8.37
2018-02-27T03:00:55.384Z,6.87
2018-02-27T03:03:02.621Z,7.53
2018-02-27T03:05:08.375Z,7.90
2018-02-27T03:07:14.171Z,8.10
2018-02-27T03:09:20.349Z,7.50
2018-02-27T03:11:26.188Z,8.87
2018-02-27T03:13:31.920Z,7.50
2018-02-27T03:15:37.821Z,8.20
2018-02-27T03:17:44.501Z,6.43
2018-02-27T03:19:50.215Z,8.37
2018-02-27T03:21:57.112Z,7.90
2018-02-27T03:24:02.848Z,7.73
2018-02-27T03:26:09.228Z,6.70
2018-02-27T03:28:15.012Z,8.50
2018-02-27T03:30:21.685Z,7.80
2018-02-27T03:32:27.799Z,7.67
2018-02-27T03:34:32.983Z,7.47
2018-02-27T03:36:39.847Z,7.83
2018-02-27T03:38:45.776Z,6.80
2018-02-27T03:40:52.033Z,7.50
2018-02-27T03:42:57.335Z,7.43
2018-02-27T03:45:03.340Z,8.00
2018-02-27T03:47:09.308Z,8.20
2018-02-27T03:49:15.731Z,7.10
2018-02-27T03:51:21.581Z,8.40
2018-02-27T03:53:27.436Z,7.60
2018-02-27T03:56:03.762Z,7.60
2018-02-27T03:58:09.704Z,8.93
2018-02-27T04:00:15.496Z,9.17
2018-02-27T04:02:21.408Z,7.47
2018-02-27T04:04:27.679Z,7.73
2018-02-27T04:06:33.312Z,8.13
2018-02-27T04:08:39.292Z,8.10
2018-02-27T04:10:45.719Z,8.57
2018-02-27T04:12:54.160Z,8.47
2018-02-27T04:14:59.930Z,7.50
2018-02-27T04:17:05.746Z,7.93
2018-02-27T04:19:11.874Z,8.33
2018-02-27T04:21:17.839Z,7.60
2018-02-27T04:23:23.597Z,7.60
2018-02-27T04:25:30.330Z,7.17
2018-02-27T04:27:36.326Z,6.90
2018-02-27T04:29:42.648Z,8.07
2018-02-27T04:31:48.631Z,8.03
2018-02-27T04:33:54.607Z,7.93
2018-02-27T04:36:00.251Z,8.00
2018-02-27T04:38:06.794Z,8.20
2018-02-27T04:40:12.882Z,10.03
2018-02-27T04:42:18.564Z,8.67
2018-02-27T04:44:25.092Z,8.80
2018-02-27T04:46:31.192Z,8.63
2018-02-27T04:48:36.959Z,8.13
2018-02-27T04:50:43.505Z,8.03
2018-02-27T04:52:49.528Z,8.53
2018-02-27T04:54:57.027Z,8.70
2018-02-27T04:57:03.060Z,8.53
2018-02-27T04:59:08.864Z,8.03
2018-02-27T05:01:14.764Z,9.17
2018-02-27T05:03:21.246Z,8.07
2018-02-27T05:05:27.049Z,8.20
2018-02-27T05:07:33.036Z,8.70
2018-02-27T05:09:39.088Z,8.70
2018-02-27T05:11:45.456Z,7.97
2018-02-27T05:13:51.276Z,8.90
2018-02-27T05:15:58.472Z,8.50
2018-02-27T05:18:04.659Z,8.63
2018-02-27T05:20:10.733Z,8.93
2018-02-27T05:22:16.633Z,9.07
2018-02-27T05:24:22.783Z,8.67
2018-02-27T05:26:29.005Z,11.13
2018-02-27T05:28:34.751Z,8.77
2018-02-27T05:30:40.020Z,9.57
2018-02-27T05:32:47.026Z,8.77
2018-02-27T05:34:52.325Z,10.00
2018-02-27T05:36:59.240Z,9.47
2018-02-27T05:39:05.273Z,8.50
2018-02-27T05:41:11.516Z,679.00
2018-02-27T05:43:17.934Z,743.93
2018-02-27T05:45:23.704Z,736.60
2018-02-27T05:47:29.932Z,523.37
2018-02-27T05:49:35.827Z,456.23
2018-02-27T05:51:41.092Z,660.63
2018-02-27T05:53:47.198Z,913.13
2018-02-27T05:55:52.572Z,986.57
2018-02-27T05:57:58.771Z,908.93
2018-02-27T06:00:04.904Z,752.60
2018-02-27T06:02:10.472Z,988.83
2018-02-27T06:04:15.721Z,567.50
2018-02-27T06:06:21.115Z,508.20
2018-02-27T06:08:26.793Z,838.83
2018-02-27T06:10:32.712Z,737.10
2018-02-27T06:12:37.954Z,363.23
2018-02-27T06:14:43.340Z,701.87
2018-02-27T06:16:49.123Z,945.40
2018-02-27T06:18:55.147Z,853.67
2018-02-27T06:21:01.160Z,1086.50
2018-02-27T06:23:06.959Z,759.97
2018-02-27T06:25:13.647Z,479.60
2018-02-27T06:27:19.976Z,377.93
2018-02-27T06:29:25.219Z,274.97
2018-02-27T06:31:30.597Z,231.90
2018-02-27T06:33:36.266Z,197.03
2018-02-27T06:35:41.804Z,184.27
2018-02-27T06:37:47.740Z,177.27
2018-02-27T06:39:53.555Z,1677.47
2018-02-27T06:42:00.031Z,1096.60
2018-02-27T06:44:05.504Z,866.97
2018-02-27T06:46:11.977Z,694.07
2018-02-27T06:48:18.299Z,580.20
2018-02-27T06:50:23.715Z,540.37
2018-02-27T06:52:29.968Z,524.40
2018-02-27T06:54:35.362Z,494.70
2018-02-27T06:56:43.069Z,470.47
2018-02-27T06:58:49.297Z,455.77
2018-02-27T07:00:55.144Z,431.93
2018-02-27T07:03:04.579Z,406.27
2018-02-27T07:05:09.959Z,401.57
2018-02-27T07:07:15.564Z,810.07
2018-02-27T07:09:22.123Z,937.70
2018-02-27T07:11:27.512Z,777.33
2018-02-27T07:13:33.798Z,729.13
2018-02-27T07:15:39.644Z,668.27
2018-02-27T07:17:45.153Z,621.93
2018-02-27T07:19:50.805Z,602.67
2018-02-27T07:21:57.579Z,571.60
2018-02-27T07:24:02.996Z,554.23
2018-02-27T07:26:08.635Z,535.37
2018-02-27T07:28:13.919Z,519.47
2018-02-27T07:30:19.883Z,496.20
2018-02-27T07:32:25.889Z,490.10
2018-02-27T07:34:32.001Z,469.50
2018-02-27T07:36:38.115Z,467.50
2018-02-27T07:38:44.233Z,449.30
2018-02-27T07:40:49.916Z,429.80
2018-02-27T07:42:55.798Z,415.37
2018-02-27T07:45:05.244Z,405.10
2018-02-27T07:47:10.602Z,365.50
2018-02-27T07:49:16.015Z,370.77
2018-02-27T07:51:22.317Z,342.67
2018-02-27T07:53:28.250Z,1036.93
2018-02-27T07:55:33.591Z,733.93
2018-02-27T07:57:39.853Z,726.07
2018-02-27T07:59:45.632Z,1838.67
2018-02-27T08:01:51.941Z,1304.63
2018-02-27T08:03:59.273Z,1023.97
2018-02-27T08:06:05.813Z,1999.90
2018-02-27T08:08:11.087Z,1412.03
2018-02-27T08:10:17.542Z,1999.90
2018-02-27T08:12:24.093Z,1999.90
2018-02-27T08:14:30.159Z,1695.27
2018-02-27T08:16:35.835Z,1999.90
2018-02-27T08:18:43.568Z,1514.73
2018-02-27T08:20:48.928Z,1565.93
2018-02-27T08:22:54.798Z,1999.90
2018-02-27T08:25:01.631Z,1999.90
2018-02-27T08:27:07.446Z,1426.07
2018-02-27T08:29:13.340Z,1486.77
2018-02-27T08:31:19.472Z,1161.53
2018-02-27T08:33:25.193Z,897.10
2018-02-27T08:35:30.641Z,673.53
2018-02-27T08:37:36.011Z,556.20
2018-02-27T08:39:42.963Z,497.43
2018-02-27T08:41:48.356Z,419.97
2018-02-27T08:43:53.867Z,375.80
2018-02-27T08:46:01.911Z,1999.90
2018-02-27T08:48:08.440Z,1303.27
2018-02-27T08:50:14.810Z,1578.07
2018-02-27T08:52:21.341Z,1297.07
2018-02-27T08:54:27.179Z,1334.70
2018-02-27T08:56:32.452Z,1999.90
2018-02-27T08:58:38.077Z,1370.90
2018-02-27T09:00:44.282Z,1999.90
2018-02-27T09:02:50.259Z,988.47
2018-02-27T09:05:03.118Z,1407.00
2018-02-27T09:07:09.060Z,718.47
2018-02-27T09:09:14.256Z,546.50
2018-02-27T09:11:20.082Z,458.13
2018-02-27T09:13:25.836Z,326.90
2018-02-27T09:15:31.754Z,261.83
2018-02-27T09:17:37.648Z,207.37
2018-02-27T09:19:46.680Z,180.00
2018-02-27T09:21:52.584Z,1037.77
2018-02-27T09:23:57.926Z,712.70
2018-02-27T09:26:03.321Z,521.30
2018-02-27T09:28:08.921Z,348.60
2018-02-27T09:30:14.248Z,234.27
2018-02-27T09:32:19.528Z,147.70
2018-02-27T09:34:25.120Z,106.67
2018-02-27T09:36:30.921Z,100.97
2018-02-27T09:38:36.260Z,97.97
2018-02-27T09:40:42.506Z,90.60
2018-02-27T09:42:48.544Z,86.37
2018-02-27T09:44:55.407Z,78.00
2018-02-27T09:47:02.267Z,74.30
2018-02-27T09:49:07.823Z,72.30
2018-02-27T09:51:13.595Z,62.63
2018-02-27T09:53:19.432Z,58.10
2018-02-27T09:55:25.269Z,474.87
2018-02-27T09:57:31.235Z,503.93
2018-02-27T09:59:37.575Z,94.13
2018-02-27T10:01:42.909Z,1999.90
2018-02-27T10:03:48.933Z,488.03
2018-02-27T10:05:54.246Z,1138.60
2018-02-27T10:07:59.687Z,251.63
2018-02-27T10:10:06.659Z,76.20
2018-02-27T10:12:13.299Z,1999.90
2018-02-27T10:14:19.765Z,232.40
2018-02-27T10:16:25.487Z,76.43
2018-02-27T10:18:30.784Z,52.60
2018-02-27T10:20:36.116Z,44.67
2018-02-27T10:22:41.861Z,776.13
2018-02-27T10:24:47.252Z,862.53
2018-02-27T10:26:52.687Z,1184.80
2018-02-27T10:28:58.604Z,637.77
2018-02-27T10:31:04.057Z,610.77
2018-02-27T10:33:10.547Z,189.80
2018-02-27T10:35:17.620Z,193.97
2018-02-27T10:37:26.916Z,54.47
2018-02-27T10:39:33.133Z,387.47
2018-02-27T10:41:39.647Z,1451.77
2018-02-27T10:43:45.108Z,210.03
2018-02-27T10:45:57.434Z,48.13
2018-02-27T10:48:04.692Z,32.60
2018-02-27T10:50:10.548Z,1330.50
2018-02-27T10:52:16.159Z,438.13
2018-02-27T10:54:21.864Z,1339.63
2018-02-27T10:56:27.457Z,1804.90
2018-02-27T10:58:33.474Z,347.57
2018-02-27T11:00:43.235Z,85.67
2018-02-27T11:02:49.124Z,1999.90
2018-02-27T11:04:54.522Z,1519.63
2018-02-27T11:07:01.602Z,1116.83
2018-02-27T11:09:07.476Z,431.57
2018-02-27T11:11:13.463Z,1641.60
2018-02-27T11:13:19.705Z,235.27
2018-02-27T11:15:26.475Z,686.17
2018-02-27T11:17:32.680Z,331.47
2018-02-27T11:19:38.269Z,385.50
2018-02-27T11:21:44.434Z,312.83
2018-02-27T11:23:49.689Z,247.00
2018-02-27T11:25:55.331Z,220.70
2018-02-27T11:28:01.881Z,218.87
2018-02-27T11:30:07.704Z,206.13
2018-02-27T11:32:13.555Z,197.13
2018-02-27T11:34:19.763Z,195.10
2018-02-27T11:36:25.232Z,186.30
2018-02-27T11:38:31.484Z,170.53
2018-02-27T11:40:37.673Z,1497.13
2018-02-27T11:42:43.421Z,577.53
2018-02-27T11:44:48.980Z,219.53
2018-02-27T11:46:54.253Z,152.07
2018-02-27T11:49:00.650Z,141.87
2018-02-27T11:51:07.169Z,724.23
2018-02-27T11:53:12.959Z,1461.07
2018-02-27T11:55:18.502Z,1284.67
2018-02-27T11:57:24.688Z,1228.47
2018-02-27T11:59:30.363Z,940.10
2018-02-27T12:01:35.883Z,1531.20
2018-02-27T12:03:41.755Z,1557.83
2018-02-27T12:05:47.326Z,1389.13
2018-02-27T12:07:53.098Z,1580.47
2018-02-27T12:09:59.230Z,1840.10
2018-02-27T12:12:04.560Z,874.33
2018-02-27T12:14:10.887Z,756.87
2018-02-27T12:16:17.070Z,326.30
2018-02-27T12:19:47.348Z,168.17
2018-02-27T12:21:52.960Z,95.83
2018-02-27T12:23:59.479Z,526.70
2018-02-27T12:26:05.497Z,247.40
2018-02-27T12:28:11.533Z,214.10
2018-02-27T12:30:17.069Z,196.20
2018-02-27T12:32:22.575Z,224.83
2018-02-27T12:34:28.210Z,243.27
2018-02-27T12:36:33.506Z,1495.50
2018-02-27T12:38:40.435Z,327.60
2018-02-27T12:40:50.098Z,245.87
2018-02-27T12:42:55.579Z,394.13
2018-02-27T12:45:01.586Z,1443.00
2018-02-27T12:47:07.196Z,438.57
2018-02-27T12:49:12.595Z,355.60
2018-02-27T12:51:20.760Z,1999.90
2018-02-27T12:53:26.938Z,365.87
2018-02-27T12:55:33.666Z,1912.50
2018-02-27T12:57:39.455Z,215.47
2018-02-27T12:59:45.455Z,254.90
2018-02-27T13:01:52.618Z,489.07
2018-02-27T13:03:59.666Z,241.13
2018-02-27T13:06:05.411Z,901.53
2018-02-27T13:08:11.130Z,1999.90
2018-02-27T13:10:16.452Z,303.73
2018-02-27T13:12:21.980Z,175.20
2018-02-27T13:14:27.265Z,116.47
2018-02-27T13:23:43.472Z,102.07
2018-02-27T13:25:48.981Z,67.40
2018-02-27T13:27:54.639Z,188.87
2018-02-27T13:30:00.466Z,136.83
2018-02-27T13:32:05.881Z,298.77
2018-02-27T13:34:11.181Z,209.00
2018-02-27T13:36:16.946Z,224.50
2018-02-27T13:38:22.435Z,228.47
2018-02-27T13:40:27.974Z,231.57
2018-02-27T13:42:33.593Z,240.07
2018-02-27T13:44:38.900Z,226.10
2018-02-27T13:46:44.560Z,211.30
2018-02-27T13:48:50.097Z,199.43
2018-02-27T13:50:55.494Z,174.90
2018-02-27T13:53:00.844Z,166.27
2018-02-27T13:55:06.553Z,172.93
2018-02-27T13:57:11.899Z,157.83
2018-02-27T13:59:17.322Z,134.23
2018-02-27T14:01:22.935Z,1999.90
2018-02-27T14:03:28.264Z,1999.90
2018-02-27T14:05:33.717Z,148.70
2018-02-27T14:07:39.415Z,128.93
2018-02-27T14:09:45.808Z,141.00
2018-02-27T14:11:51.493Z,206.20
2018-02-27T14:13:57.223Z,1999.90
2018-02-27T14:16:03.736Z,194.23
2018-02-27T14:18:09.088Z,1999.90
2018-02-27T14:20:15.088Z,114.63
2018-02-27T14:22:21.292Z,106.03
2018-02-27T14:24:27.217Z,108.13
2018-02-27T14:26:32.825Z,91.57
2018-02-27T14:28:38.292Z,150.97
2018-02-27T14:30:43.692Z,1999.90
2018-02-27T14:32:49.420Z,84.80
2018-02-27T14:34:54.666Z,77.47
2018-02-27T14:36:59.850Z,149.53
2018-02-27T14:39:06.441Z,77.23
2018-02-27T14:41:12.375Z,65.43
2018-02-27T14:43:17.755Z,57.00
2018-02-27T14:45:23.497Z,53.50
2018-02-27T14:47:28.864Z,1999.90
2018-02-27T14:49:34.297Z,1999.90
2018-02-27T14:51:40.016Z,1999.90
2018-02-27T14:53:45.365Z,173.37
2018-02-27T14:55:50.879Z,48.20
2018-02-27T14:57:56.560Z,55.43
2018-02-27T15:00:02.972Z,42.57
2018-02-27T15:02:08.312Z,526.27
2018-02-27T15:04:13.978Z,1105.33
2018-02-27T15:06:19.424Z,40.17
2018-02-27T15:08:24.909Z,37.03
2018-02-27T15:10:30.446Z,42.07
2018-02-27T15:12:35.963Z,34.27
2018-02-27T15:14:41.660Z,31.87
2018-02-27T15:16:47.314Z,141.97
2018-02-27T15:18:52.653Z,29.13
2018-02-27T15:20:57.961Z,28.53
2018-02-27T15:23:03.951Z,1999.90
2018-02-27T15:25:09.200Z,32.27
2018-02-27T15:27:14.576Z,292.00
2018-02-27T15:29:20.194Z,68.67
2018-02-27T15:31:25.600Z,31.30
2018-02-27T15:33:30.981Z,42.23
2018-02-27T15:35:36.602Z,40.77
2018-02-27T15:37:42.384Z,26.80
2018-02-27T15:39:48.587Z,24.10
2018-02-27T15:41:54.453Z,22.87
2018-02-27T15:43:59.786Z,21.33
2018-02-27T15:46:05.038Z,22.60
2018-02-27T15:48:11.660Z,22.50
2018-02-27T15:50:17.203Z,23.50
2018-02-27T15:52:22.533Z,18.73
2018-02-27T15:54:28.152Z,18.10
2018-02-27T15:56:33.601Z,16.70
2018-02-27T15:58:38.891Z,90.27
2018-02-27T16:00:45.105Z,16.70
2018-02-27T16:02:50.384Z,16.70
2018-02-27T16:04:55.682Z,27.33
2018-02-27T16:07:01.225Z,15.83
2018-02-27T16:09:06.961Z,14.50
2018-02-27T16:11:12.863Z,11.70
2018-02-27T16:13:18.433Z,12.50
2018-02-27T16:15:23.663Z,12.43
2018-02-27T16:17:28.975Z,12.53
2018-02-27T16:19:34.549Z,11.30
2018-02-27T16:21:39.856Z,11.87
2018-02-27T16:23:45.303Z,26.80
2018-02-27T16:25:52.056Z,11.23
2018-02-27T16:27:57.636Z,12.63
2018-02-27T16:30:02.996Z,10.63
2018-02-27T16:32:09.747Z,10.97
2018-02-27T16:34:15.174Z,10.47
2018-02-27T16:36:20.603Z,10.60
2018-02-27T16:38:26.312Z,9.90
2018-02-27T16:40:31.895Z,11.60
2018-02-27T16:42:37.223Z,12.10
2018-02-27T16:44:42.888Z,9.10
2018-02-27T16:46:48.187Z,9.43
2018-02-27T16:48:53.664Z,8.00
2018-02-27T16:50:59.529Z,8.53
2018-02-27T16:53:05.864Z,387.17
2018-02-27T16:55:11.258Z,720.17
2018-02-27T16:57:17.072Z,35.90
2018-02-27T16:59:23.115Z,1321.20
2018-02-27T17:01:28.480Z,41.40
2018-02-27T17:03:34.088Z,240.57
2018-02-27T17:05:39.466Z,1999.90
2018-02-27T17:07:44.869Z,622.30
2018-02-27T17:09:50.600Z,76.27
2018-02-27T17:11:56.883Z,25.23
2018-02-27T17:14:02.348Z,145.37
2018-02-27T17:16:08.287Z,15.10
2018-02-27T17:18:13.639Z,14.07
2018-02-27T17:20:19.071Z,9.63
2018-02-27T17:22:25.325Z,9.40
2018-02-27T17:24:34.455Z,11.13
2018-02-27T17:26:44.853Z,9.23
2018-02-27T17:28:54.593Z,1999.90
2018-02-27T17:31:02.879Z,930.17
2018-02-27T17:33:12.849Z,48.07
2018-02-27T17:35:22.146Z,9.70
2018-02-27T17:37:32.821Z,8.40
2018-02-27T17:39:38.229Z,1246.73
2018-02-27T17:41:43.943Z,18.10
2018-02-27T17:43:49.220Z,7.47
2018-02-27T17:45:54.467Z,7.70
2018-02-27T17:48:00.131Z,8.63
2018-02-27T17:50:05.515Z,7.80
2018-02-27T17:52:11.666Z,8.40
2018-02-27T17:54:17.480Z,6.43
2018-02-27T17:56:22.875Z,6.60
2018-02-27T17:58:28.230Z,8.00
2018-02-27T18:00:33.829Z,5.83
2018-02-27T18:02:39.208Z,6.60
2018-02-27T18:04:44.585Z,7.70
2018-02-27T18:06:50.257Z,6.70
2018-02-27T18:08:55.565Z,7.50
2018-02-27T18:11:02.774Z,7.67
2018-02-27T18:13:09.129Z,7.23
2018-02-27T18:15:14.444Z,6.93
2018-02-27T18:17:19.841Z,7.40
2018-02-27T18:19:25.457Z,6.93
2018-02-27T18:21:30.765Z,6.60
2018-02-27T18:23:36.506Z,6.50
2018-02-27T18:25:42.388Z,7.13
2018-02-27T18:27:47.749Z,6.77
2018-02-27T18:29:53.098Z,6.50
2018-02-27T18:31:58.952Z,7.40
2018-02-27T18:34:05.312Z,6.33
2018-02-27T18:36:10.730Z,7.50
2018-02-27T18:38:16.819Z,7.47
2018-02-27T18:40:22.244Z,7.60
2018-02-27T18:42:27.930Z,7.23
2018-02-27T18:44:33.661Z,7.17
2018-02-27T18:46:39.118Z,7.37
2018-02-27T18:48:44.820Z,7.40
2018-02-27T18:50:50.380Z,7.67
2018-02-27T18:52:55.708Z,7.30
2018-02-27T18:55:01.046Z,6.87
2018-02-27T18:57:06.751Z,8.43
2018-02-27T18:59:12.393Z,7.23
2018-02-27T19:01:17.753Z,8.90
2018-02-27T19:03:24.066Z,7.10
2018-02-27T19:05:29.408Z,8.27
2018-02-27T19:07:34.821Z,7.80
2018-02-27T19:09:41.694Z,8.80
2018-02-27T19:11:47.019Z,7.40
2018-02-27T19:13:52.349Z,7.93
2018-02-27T19:15:58.357Z,7.97
2018-02-27T19:18:03.751Z,8.67
2018-02-27T19:20:09.108Z,8.10
2018-02-27T19:22:14.632Z,8.57
2018-02-27T19:24:19.936Z,8.10
2018-02-27T19:26:25.408Z,9.57
2018-02-27T19:28:31.220Z,8.53
2018-02-27T19:30:36.473Z,9.80
2018-02-27T19:32:41.800Z,8.30
2018-02-27T19:34:47.445Z,8.77
2018-02-27T19:36:52.998Z,10.40
2018-02-27T19:38:58.284Z,8.80
2018-02-27T19:41:06.030Z,8.77
2018-02-27T19:43:11.303Z,9.77
2018-02-27T19:45:16.643Z,8.70
2018-02-27T19:47:22.187Z,8.20
2018-02-27T19:49:27.721Z,10.33
2018-02-27T19:51:37.126Z,8.50
2018-02-27T19:53:42.804Z,11.93
2018-02-27T19:55:48.907Z,12.00
2018-02-27T19:57:55.283Z,8.57
2018-02-27T20:00:00.918Z,8.00
2018-02-27T20:02:06.976Z,8.70
2018-02-27T20:04:12.622Z,9.13
2018-02-27T20:06:19.199Z,8.30
2018-02-27T20:08:25.061Z,10.23
2018-02-27T20:10:30.419Z,9.23
2018-02-27T20:12:36.053Z,11.10
2018-02-27T20:14:41.562Z,8.90
2018-02-27T20:16:47.608Z,9.20
2018-02-27T20:18:54.158Z,8.90
2018-02-27T20:20:59.522Z,9.33
2018-02-27T20:23:09.484Z,8.67
2018-02-27T20:25:15.192Z,9.20
2018-02-27T20:27:20.569Z,9.10
2018-02-27T20:29:26.084Z,9.83
2018-02-27T20:31:31.838Z,10.37
2018-02-27T20:33:37.245Z,10.67
2018-02-27T20:35:42.575Z,10.40
2018-02-27T20:37:48.344Z,9.47
2018-02-27T20:39:54.135Z,8.33
2018-02-27T20:42:01.639Z,9.80
2018-02-27T20:44:07.430Z,9.57
2018-02-27T20:46:14.549Z,9.17
2018-02-27T20:48:22.722Z,9.30
2018-02-27T20:50:28.558Z,10.13
2018-02-27T20:52:34.023Z,9.00
2018-02-27T20:54:39.765Z,9.77
2018-02-27T20:56:45.396Z,11.13
2018-02-27T20:58:51.222Z,9.97
2018-02-27T21:01:03.895Z,9.97
2018-02-27T21:03:18.588Z,10.57
2018-02-27T21:05:30.600Z,9.80
2018-02-27T21:07:39.606Z,10.53
2018-02-27T21:09:45.646Z,12.87
2018-02-27T21:11:51.551Z,13.30
2018-02-27T21:13:58.338Z,10.67
2018-02-27T21:16:04.264Z,10.70
2018-02-27T21:18:10.085Z,13.27
2018-02-27T21:20:16.287Z,14.37
2018-02-27T21:22:23.178Z,12.80
2018-02-27T21:24:28.457Z,12.33
2018-02-27T21:26:34.088Z,12.53
2018-02-27T21:28:40.165Z,11.43
2018-02-27T21:30:45.871Z,12.30
2018-02-27T21:32:53.544Z,13.43
2018-02-27T21:34:59.387Z,11.27
2018-02-27T21:37:04.765Z,13.87
2018-02-27T21:39:11.163Z,13.37
2018-02-27T21:41:17.477Z,11.70
2018-02-27T21:43:23.340Z,12.00
2018-02-27T21:45:28.767Z,12.17
2018-02-27T21:47:34.401Z,12.60
2018-02-27T21:49:39.959Z,12.43
2018-02-27T21:51:46.400Z,12.67
2018-02-27T21:53:53.502Z,13.60
2018-02-27T21:55:59.476Z,13.50
2018-02-27T21:58:05.084Z,14.87
2018-02-27T22:00:11.197Z,12.33
2018-02-27T22:02:17.095Z,11.50
2018-02-27T22:04:22.544Z,12.03
2018-02-27T22:06:28.250Z,13.33
2018-02-27T22:08:33.594Z,12.93
2018-02-27T22:10:39.067Z,15.00
2018-02-27T22:12:45.637Z,13.33
2018-02-27T22:14:52.297Z,13.20
2018-02-27T22:16:59.213Z,12.50
2018-02-27T22:19:05.679Z,11.53
2018-02-27T22:21:12.479Z,11.77
2018-02-27T22:23:18.589Z,11.90
2018-02-27T22:25:26.192Z,15.03
2018-02-27T22:27:31.662Z,11.97
2018-02-27T22:29:42.692Z,12.80
2018-02-27T22:31:49.012Z,12.57
2018-02-27T22:33:55.819Z,17.13
2018-02-27T22:36:01.180Z,12.33
2018-02-27T22:38:06.884Z,14.20
2018-02-27T22:40:13.138Z,12.37
2018-02-27T22:42:18.634Z,14.90
2018-02-27T22:44:24.311Z,16.53
2018-02-27T22:46:29.594Z,13.77
2018-02-27T22:48:36.683Z,14.80
2018-02-27T22:50:42.668Z,15.30
2018-02-27T22:52:48.008Z,16.37
2018-02-27T22:54:53.379Z,12.67
2018-02-27T22:57:02.492Z,14.47
2018-02-27T22:59:08.588Z,14.47
2018-02-27T23:01:14.262Z,15.87
2018-02-27T23:03:20.304Z,17.57
2018-02-27T23:05:30.553Z,14.30
2018-02-27T23:07:36.775Z,14.50
2018-02-27T23:09:42.806Z,17.93
2018-02-27T23:11:48.216Z,19.87
2018-02-27T23:13:54.444Z,18.93
2018-02-27T23:16:02.094Z,17.10
2018-02-27T23:18:07.907Z,17.10
2018-02-27T23:20:13.577Z,15.47
2018-02-27T23:22:20.181Z,17.90
2018-02-27T23:24:44.463Z,14.13
2018-02-27T23:26:57.118Z,14.33
2018-02-27T23:29:07.988Z,15.00
2018-02-27T23:31:15.874Z,17.70
2018-02-27T23:33:35.546Z,16.70
2018-02-27T23:35:43.277Z,18.93
2018-02-27T23:37:48.765Z,16.00
2018-02-27T23:39:54.722Z,16.47
2018-02-27T23:42:00.479Z,18.27
2018-02-27T23:44:06.054Z,16.40
2018-02-27T23:46:11.986Z,17.97
2018-02-27T23:48:18.206Z,17.00
2018-02-27T23:50:24.849Z,16.90
2018-02-27T23:52:31.116Z,16.17
2018-02-27T23:54:37.164Z,17.10
2018-02-27T23:56:43.116Z,15.93
2018-02-27T23:58:49.055Z,16.00
